sensor_id;sensor_type;location;lat;lon;timestamp;temperature;humidity
63435;DHT22;68814;50.872;5.306;2023-04-03T00:00:41;2.10;92.20
63435;DHT22;68814;50.872;5.306;2023-04-03T00:03:07;2.10;92.20
63435;DHT22;68814;50.872;5.306;2023-04-03T00:05:33;2.00;92.30
63435;DHT22;68814;50.872;5.306;2023-04-03T00:14:43;1.90;92.30
63435;DHT22;68814;50.872;5.306;2023-04-03T00:17:08;1.80;92.30
63435;DHT22;68814;50.872;5.306;2023-04-03T00:19:34;1.80;92.40
63435;DHT22;68814;50.872;5.306;2023-04-03T00:22:00;1.80;92.50
63435;DHT22;68814;50.872;5.306;2023-04-03T00:24:26;1.70;92.60
63435;DHT22;68814;50.872;5.306;2023-04-03T00:26:51;1.70;92.60
63435;DHT22;68814;50.872;5.306;2023-04-03T00:37:25;1.60;92.80
63435;DHT22;68814;50.872;5.306;2023-04-03T00:39:51;1.50;92.90
63435;DHT22;68814;50.872;5.306;2023-04-03T00:42:16;1.50;92.90
63435;DHT22;68814;50.872;5.306;2023-04-03T00:47:13;1.40;92.90
63435;DHT22;68814;50.872;5.306;2023-04-03T00:49:57;1.40;93.00
63435;DHT22;68814;50.872;5.306;2023-04-03T00:52:27;1.30;93.00
63435;DHT22;68814;50.872;5.306;2023-04-03T00:54:54;1.30;93.00
63435;DHT22;68814;50.872;5.306;2023-04-03T00:57:22;1.30;93.20
63435;DHT22;68814;50.872;5.306;2023-04-03T00:59:55;1.30;93.30
63435;DHT22;68814;50.872;5.306;2023-04-03T01:02:23;1.20;93.30
63435;DHT22;68814;50.872;5.306;2023-04-03T01:04:48;1.20;93.30
63435;DHT22;68814;50.872;5.306;2023-04-03T01:07:23;1.20;93.30
63435;DHT22;68814;50.872;5.306;2023-04-03T01:09:57;1.20;93.30
63435;DHT22;68814;50.872;5.306;2023-04-03T01:22:55;1.10;93.60
63435;DHT22;68814;50.872;5.306;2023-04-03T01:25:21;1.10;93.60
63435;DHT22;68814;50.872;5.306;2023-04-03T01:27:47;1.00;93.60
63435;DHT22;68814;50.872;5.306;2023-04-03T01:30:16;1.00;93.60
63435;DHT22;68814;50.872;5.306;2023-04-03T01:39:27;0.90;93.60
63435;DHT22;68814;50.872;5.306;2023-04-03T01:41:52;0.80;93.70
63435;DHT22;68814;50.872;5.306;2023-04-03T01:44:18;0.80;93.80
63435;DHT22;68814;50.872;5.306;2023-04-03T01:46:44;0.80;93.90
63435;DHT22;68814;50.872;5.306;2023-04-03T01:49:10;0.80;93.90
63435;DHT22;68814;50.872;5.306;2023-04-03T01:54:58;0.70;94.00
63435;DHT22;68814;50.872;5.306;2023-04-03T01:57:23;0.60;94.00
63435;DHT22;68814;50.872;5.306;2023-04-03T01:59:49;0.60;94.00
63435;DHT22;68814;50.872;5.306;2023-04-03T02:02:14;0.60;94.00
63435;DHT22;68814;50.872;5.306;2023-04-03T02:04:41;0.60;94.00
63435;DHT22;68814;50.872;5.306;2023-04-03T02:20:41;0.40;94.20
63435;DHT22;68814;50.872;5.306;2023-04-03T02:23:07;0.40;94.30
63435;DHT22;68814;50.872;5.306;2023-04-03T02:25:33;0.40;94.30
63435;DHT22;68814;50.872;5.306;2023-04-03T02:27:59;0.30;94.30
63435;DHT22;68814;50.872;5.306;2023-04-03T02:30:25;0.30;94.40
63435;DHT22;68814;50.872;5.306;2023-04-03T02:32:50;0.30;94.30
63435;DHT22;68814;50.872;5.306;2023-04-03T02:53:41;0.20;94.60
63435;DHT22;68814;50.872;5.306;2023-04-03T02:56:07;0.20;94.80
63435;DHT22;68814;50.872;5.306;2023-04-03T02:58:33;0.20;94.70
63435;DHT22;68814;50.872;5.306;2023-04-03T03:00:59;0.20;94.70
63435;DHT22;68814;50.872;5.306;2023-04-03T03:03:25;0.10;94.80
63435;DHT22;68814;50.872;5.306;2023-04-03T03:06:01;0.10;94.90
63435;DHT22;68814;50.872;5.306;2023-04-03T03:08:26;0.10;94.80
63435;DHT22;68814;50.872;5.306;2023-04-03T03:10:52;0.10;94.80
63435;DHT22;68814;50.872;5.306;2023-04-03T03:13:17;0.10;94.90
63435;DHT22;68814;50.872;5.306;2023-04-03T03:15:43;0.10;94.90
63435;DHT22;68814;50.872;5.306;2023-04-03T03:18:27;0.10;94.80
63435;DHT22;68814;50.872;5.306;2023-04-03T03:20:54;0.00;94.80
63435;DHT22;68814;50.872;5.306;2023-04-03T03:23:21;0.00;94.80
63435;DHT22;68814;50.872;5.306;2023-04-03T03:25:47;0.00;94.80
63435;DHT22;68814;50.872;5.306;2023-04-03T03:28:13;-0.10;94.90
63435;DHT22;68814;50.872;5.306;2023-04-03T03:30:39;-0.10;95.00
63435;DHT22;68814;50.872;5.306;2023-04-03T03:33:04;-0.10;94.90
63435;DHT22;68814;50.872;5.306;2023-04-03T03:38:52;-0.10;94.80
63435;DHT22;68814;50.872;5.306;2023-04-03T03:41:18;-0.20;94.70
63435;DHT22;68814;50.872;5.306;2023-04-03T03:43:43;-0.20;94.80
63435;DHT22;68814;50.872;5.306;2023-04-03T03:46:09;-0.20;94.90
63435;DHT22;68814;50.872;5.306;2023-04-03T03:51:56;-0.20;95.00
63435;DHT22;68814;50.872;5.306;2023-04-03T03:54:22;-0.30;95.00
63435;DHT22;68814;50.872;5.306;2023-04-03T03:56:48;-0.30;95.10
63435;DHT22;68814;50.872;5.306;2023-04-03T03:59:13;-0.30;95.20
63435;DHT22;68814;50.872;5.306;2023-04-03T04:11:45;-0.30;95.20
63435;DHT22;68814;50.872;5.306;2023-04-03T04:14:11;-0.40;95.20
63435;DHT22;68814;50.872;5.306;2023-04-03T04:16:38;-0.40;95.20
63435;DHT22;68814;50.872;5.306;2023-04-03T04:19:04;-0.40;95.30
63435;DHT22;68814;50.872;5.306;2023-04-03T04:28:14;-0.40;95.20
63435;DHT22;68814;50.872;5.306;2023-04-03T04:30:40;-0.40;95.30
63435;DHT22;68814;50.872;5.306;2023-04-03T04:33:06;-0.40;95.30
63435;DHT22;68814;50.872;5.306;2023-04-03T04:35:32;-0.40;95.30
63435;DHT22;68814;50.872;5.306;2023-04-03T04:37:58;-0.40;95.30
63435;DHT22;68814;50.872;5.306;2023-04-03T04:40:24;-0.40;95.30
63435;DHT22;68814;50.872;5.306;2023-04-03T04:43:09;-0.40;95.30
63435;DHT22;68814;50.872;5.306;2023-04-03T04:45:36;-0.40;95.30
63435;DHT22;68814;50.872;5.306;2023-04-03T04:48:01;-0.40;95.30
63435;DHT22;68814;50.872;5.306;2023-04-03T04:50:27;-0.50;95.30
63435;DHT22;68814;50.872;5.306;2023-04-03T04:52:53;-0.50;95.30
63435;DHT22;68814;50.872;5.306;2023-04-03T04:58:49;-0.50;95.30
63435;DHT22;68814;50.872;5.306;2023-04-03T05:01:14;-0.50;95.30
63435;DHT22;68814;50.872;5.306;2023-04-03T05:03:40;-0.50;95.30
63435;DHT22;68814;50.872;5.306;2023-04-03T05:06:06;-0.50;95.30
63435;DHT22;68814;50.872;5.306;2023-04-03T05:08:32;-0.50;95.30
63435;DHT22;68814;50.872;5.306;2023-04-03T05:10:58;-0.60;95.30
63435;DHT22;68814;50.872;5.306;2023-04-03T05:16:46;-0.50;95.40
63435;DHT22;68814;50.872;5.306;2023-04-03T05:19:11;-0.60;95.30
63435;DHT22;68814;50.872;5.306;2023-04-03T05:21:37;-0.60;95.30
63435;DHT22;68814;50.872;5.306;2023-04-03T05:24:03;-0.60;95.30
63435;DHT22;68814;50.872;5.306;2023-04-03T05:26:32;-0.60;95.20
63435;DHT22;68814;50.872;5.306;2023-04-03T05:28:58;-0.60;95.30
63435;DHT22;68814;50.872;5.306;2023-04-03T05:31:23;-0.60;95.30
63435;DHT22;68814;50.872;5.306;2023-04-03T05:37:14;-0.60;95.30
63435;DHT22;68814;50.872;5.306;2023-04-03T05:39:40;-0.60;95.20
63435;DHT22;68814;50.872;5.306;2023-04-03T05:42:07;-0.50;95.40
63435;DHT22;68814;50.872;5.306;2023-04-03T05:44:33;-0.50;95.40
63435;DHT22;68814;50.872;5.306;2023-04-03T05:46:59;-0.40;95.30
63435;DHT22;68814;50.872;5.306;2023-04-03T05:49:25;-0.40;95.30
63435;DHT22;68814;50.872;5.306;2023-04-03T05:51:51;-0.40;95.20
63435;DHT22;68814;50.872;5.306;2023-04-03T05:54:25;-0.40;95.20
63435;DHT22;68814;50.872;5.306;2023-04-03T05:56:51;-0.40;95.20
63435;DHT22;68814;50.872;5.306;2023-04-03T05:59:18;-0.30;95.30
63435;DHT22;68814;50.872;5.306;2023-04-03T06:01:43;-0.30;95.30
63435;DHT22;68814;50.872;5.306;2023-04-03T06:04:10;-0.20;95.40
63435;DHT22;68814;50.872;5.306;2023-04-03T06:06:56;-0.10;95.50
63435;DHT22;68814;50.872;5.306;2023-04-03T06:16:07;0.20;95.70
63435;DHT22;68814;50.872;5.306;2023-04-03T06:18:34;0.30;95.70
63435;DHT22;68814;50.872;5.306;2023-04-03T06:21:00;0.40;95.60
63435;DHT22;68814;50.872;5.306;2023-04-03T06:23:28;0.50;95.70
63435;DHT22;68814;50.872;5.306;2023-04-03T06:25:53;0.50;95.70
63435;DHT22;68814;50.872;5.306;2023-04-03T06:28:20;0.60;95.70
63435;DHT22;68814;50.872;5.306;2023-04-03T06:30:45;0.70;95.60
63435;DHT22;68814;50.872;5.306;2023-04-03T06:33:11;0.80;95.50
63435;DHT22;68814;50.872;5.306;2023-04-03T06:35:36;0.90;95.60
63435;DHT22;68814;50.872;5.306;2023-04-03T06:55:03;1.60;95.60
63435;DHT22;68814;50.872;5.306;2023-04-03T06:57:30;1.80;95.70
63435;DHT22;68814;50.872;5.306;2023-04-03T06:59:55;1.90;95.30
63435;DHT22;68814;50.872;5.306;2023-04-03T07:02:21;2.00;95.30
63435;DHT22;68814;50.872;5.306;2023-04-03T07:04:47;2.10;95.30
63435;DHT22;68814;50.872;5.306;2023-04-03T07:07:13;2.20;95.10
63435;DHT22;68814;50.872;5.306;2023-04-03T07:09:39;2.30;95.10
63435;DHT22;68814;50.872;5.306;2023-04-03T07:12:05;2.40;94.90
63435;DHT22;68814;50.872;5.306;2023-04-03T07:14:31;2.50;94.80
63435;DHT22;68814;50.872;5.306;2023-04-03T07:16:57;2.60;94.70
63435;DHT22;68814;50.872;5.306;2023-04-03T07:19:22;2.70;94.60
63435;DHT22;68814;50.872;5.306;2023-04-03T07:22:02;2.80;94.30
63435;DHT22;68814;50.872;5.306;2023-04-03T07:24:27;3.00;94.00
63435;DHT22;68814;50.872;5.306;2023-04-03T07:26:53;3.00;93.90
63435;DHT22;68814;50.872;5.306;2023-04-03T07:29:20;3.20;93.60
63435;DHT22;68814;50.872;5.306;2023-04-03T07:31:47;3.30;93.10
63435;DHT22;68814;50.872;5.306;2023-04-03T07:34:13;3.40;92.80
63435;DHT22;68814;50.872;5.306;2023-04-03T07:36:38;3.50;92.50
63435;DHT22;68814;50.872;5.306;2023-04-03T07:39:04;3.60;92.30
63435;DHT22;68814;50.872;5.306;2023-04-03T07:41:30;3.70;92.30
63435;DHT22;68814;50.872;5.306;2023-04-03T07:43:56;3.80;91.90
63435;DHT22;68814;50.872;5.306;2023-04-03T07:46:22;3.90;91.30
63435;DHT22;68814;50.872;5.306;2023-04-03T07:48:48;4.00;91.00
63435;DHT22;68814;50.872;5.306;2023-04-03T07:51:14;4.10;91.00
63435;DHT22;68814;50.872;5.306;2023-04-03T07:53:40;4.20;90.70
63435;DHT22;68814;50.872;5.306;2023-04-03T07:56:07;4.30;90.30
63435;DHT22;68814;50.872;5.306;2023-04-03T07:58:33;4.40;90.10
63435;DHT22;68814;50.872;5.306;2023-04-03T08:00:59;4.50;89.10
63435;DHT22;68814;50.872;5.306;2023-04-03T08:03:25;4.70;89.10
63435;DHT22;68814;50.872;5.306;2023-04-03T08:05:51;4.80;88.30
63435;DHT22;68814;50.872;5.306;2023-04-03T08:08:21;4.90;87.80
63435;DHT22;68814;50.872;5.306;2023-04-03T08:10:51;5.10;84.80
63435;DHT22;68814;50.872;5.306;2023-04-03T08:13:23;5.10;85.30
63435;DHT22;68814;50.872;5.306;2023-04-03T08:15:49;5.30;83.70
63435;DHT22;68814;50.872;5.306;2023-04-03T08:18:15;5.40;83.90
63435;DHT22;68814;50.872;5.306;2023-04-03T08:20:41;5.50;82.60
63435;DHT22;68814;50.872;5.306;2023-04-03T08:23:07;5.60;82.20
63435;DHT22;68814;50.872;5.306;2023-04-03T08:25:37;5.90;85.80
63435;DHT22;68814;50.872;5.306;2023-04-03T08:28:03;6.10;79.40
63435;DHT22;68814;50.872;5.306;2023-04-03T08:30:29;6.10;80.00
63435;DHT22;68814;50.872;5.306;2023-04-03T08:35:30;6.30;78.20
63435;DHT22;68814;50.872;5.306;2023-04-03T08:37:55;6.50;78.50
63435;DHT22;68814;50.872;5.306;2023-04-03T08:40:22;6.60;76.90
63435;DHT22;68814;50.872;5.306;2023-04-03T08:45:53;6.90;76.40
63435;DHT22;68814;50.872;5.306;2023-04-03T08:48:41;7.10;74.50
63435;DHT22;68814;50.872;5.306;2023-04-03T08:51:16;7.30;72.90
63435;DHT22;68814;50.872;5.306;2023-04-03T08:53:56;7.40;73.40
63435;DHT22;68814;50.872;5.306;2023-04-03T08:56:24;7.60;72.50
63435;DHT22;68814;50.872;5.306;2023-04-03T08:58:57;7.70;73.60
63435;DHT22;68814;50.872;5.306;2023-04-03T09:01:33;7.90;72.80
63435;DHT22;68814;50.872;5.306;2023-04-03T09:04:09;8.10;72.30
63435;DHT22;68814;50.872;5.306;2023-04-03T09:06:36;8.30;70.40
63435;DHT22;68814;50.872;5.306;2023-04-03T09:09:37;8.40;70.00
63435;DHT22;68814;50.872;5.306;2023-04-03T09:12:25;8.50;70.00
63435;DHT22;68814;50.872;5.306;2023-04-03T09:21:16;8.90;67.20
63435;DHT22;68814;50.872;5.306;2023-04-03T09:23:52;9.20;68.20
63435;DHT22;68814;50.872;5.306;2023-04-03T09:26:46;9.40;65.20
63435;DHT22;68814;50.872;5.306;2023-04-03T09:29:22;9.50;64.50
63435;DHT22;68814;50.872;5.306;2023-04-03T09:31:50;9.50;61.60
63435;DHT22;68814;50.872;5.306;2023-04-03T09:34:22;9.40;61.40
63435;DHT22;68814;50.872;5.306;2023-04-03T09:39:18;9.70;62.60
63435;DHT22;68814;50.872;5.306;2023-04-03T09:48:27;10.00;59.20
63435;DHT22;68814;50.872;5.306;2023-04-03T09:53:41;10.40;59.90
63435;DHT22;68814;50.872;5.306;2023-04-03T09:56:31;10.70;61.90
63435;DHT22;68814;50.872;5.306;2023-04-03T10:01:30;11.00;57.80
63435;DHT22;68814;50.872;5.306;2023-04-03T10:06:41;11.30;58.80
63435;DHT22;68814;50.872;5.306;2023-04-03T10:19:58;11.70;58.10
63435;DHT22;68814;50.872;5.306;2023-04-03T10:22:45;12.00;57.60
63435;DHT22;68814;50.872;5.306;2023-04-03T10:25:41;12.20;52.10
63435;DHT22;68814;50.872;5.306;2023-04-03T10:30:52;12.40;55.20
63435;DHT22;68814;50.872;5.306;2023-04-03T10:33:47;12.60;49.70
63435;DHT22;68814;50.872;5.306;2023-04-03T10:36:33;12.70;50.30
63435;DHT22;68814;50.872;5.306;2023-04-03T10:39:24;12.80;49.70
63435;DHT22;68814;50.872;5.306;2023-04-03T10:41:56;13.00;50.30
63435;DHT22;68814;50.872;5.306;2023-04-03T10:44:30;13.10;48.10
63435;DHT22;68814;50.872;5.306;2023-04-03T10:52:43;13.50;49.20
63435;DHT22;68814;50.872;5.306;2023-04-03T10:57:49;13.80;46.10
63435;DHT22;68814;50.872;5.306;2023-04-03T11:00:19;13.80;48.30
63435;DHT22;68814;50.872;5.306;2023-04-03T11:03:09;13.90;46.50
63435;DHT22;68814;50.872;5.306;2023-04-03T11:05:47;14.10;44.50
63435;DHT22;68814;50.872;5.306;2023-04-03T11:08:28;13.90;46.10
63435;DHT22;68814;50.872;5.306;2023-04-03T11:10:59;14.10;46.90
63435;DHT22;68814;50.872;5.306;2023-04-03T11:13:42;14.20;43.10
63435;DHT22;68814;50.872;5.306;2023-04-03T11:16:14;14.30;43.00
63435;DHT22;68814;50.872;5.306;2023-04-03T11:19:02;14.30;45.90
63435;DHT22;68814;50.872;5.306;2023-04-03T11:24:59;14.60;43.50
63435;DHT22;68814;50.872;5.306;2023-04-03T11:27:33;14.60;43.80
63435;DHT22;68814;50.872;5.306;2023-04-03T11:30:01;14.60;44.20
63435;DHT22;68814;50.872;5.306;2023-04-03T11:35:13;14.80;44.00
63435;DHT22;68814;50.872;5.306;2023-04-03T11:37:46;14.90;44.40
63435;DHT22;68814;50.872;5.306;2023-04-03T11:40:34;14.80;42.80
63435;DHT22;68814;50.872;5.306;2023-04-03T11:43:22;14.90;42.80
63435;DHT22;68814;50.872;5.306;2023-04-03T11:46:04;14.80;42.40
63435;DHT22;68814;50.872;5.306;2023-04-03T11:51:00;14.90;43.60
63435;DHT22;68814;50.872;5.306;2023-04-03T12:14:04;16.50;43.90
63435;DHT22;68814;50.872;5.306;2023-04-03T12:16:33;16.50;41.50
63435;DHT22;68814;50.872;5.306;2023-04-03T12:19:30;16.40;41.10
63435;DHT22;68814;50.872;5.306;2023-04-03T12:28:41;16.80;39.60
63435;DHT22;68814;50.872;5.306;2023-04-03T12:31:10;17.00;43.80
63435;DHT22;68814;50.872;5.306;2023-04-03T12:36:41;16.80;40.10
63435;DHT22;68814;50.872;5.306;2023-04-03T12:45:02;17.30;43.40
63435;DHT22;68814;50.872;5.306;2023-04-03T12:47:36;17.60;43.90
63435;DHT22;68814;50.872;5.306;2023-04-03T12:50:30;17.90;41.60
63435;DHT22;68814;50.872;5.306;2023-04-03T12:53:03;18.20;44.00
63435;DHT22;68814;50.872;5.306;2023-04-03T12:55:29;18.50;42.50
63435;DHT22;68814;50.872;5.306;2023-04-03T12:57:55;18.80;41.70
63435;DHT22;68814;50.872;5.306;2023-04-03T13:02:58;18.80;39.10
63435;DHT22;68814;50.872;5.306;2023-04-03T13:05:24;18.70;41.30
63435;DHT22;68814;50.872;5.306;2023-04-03T13:08:04;18.90;39.40
63435;DHT22;68814;50.872;5.306;2023-04-03T13:13:14;19.00;40.10
63435;DHT22;68814;50.872;5.306;2023-04-03T13:15:43;19.00;37.60
63435;DHT22;68814;50.872;5.306;2023-04-03T13:31:33;20.00;38.40
63435;DHT22;68814;50.872;5.306;2023-04-03T13:34:12;19.80;38.30
63435;DHT22;68814;50.872;5.306;2023-04-03T13:37:06;19.90;41.40
63435;DHT22;68814;50.872;5.306;2023-04-03T13:39:37;20.20;38.00
63435;DHT22;68814;50.872;5.306;2023-04-03T13:42:24;20.30;35.50
63435;DHT22;68814;50.872;5.306;2023-04-03T13:48:10;20.50;38.60
63435;DHT22;68814;50.872;5.306;2023-04-03T13:53:17;20.80;37.40
63435;DHT22;68814;50.872;5.306;2023-04-03T13:55:59;20.80;36.50
63435;DHT22;68814;50.872;5.306;2023-04-03T13:58:28;20.80;36.40
63435;DHT22;68814;50.872;5.306;2023-04-03T14:01:20;21.00;36.40
63435;DHT22;68814;50.872;5.306;2023-04-03T14:03:53;21.10;33.90
63435;DHT22;68814;50.872;5.306;2023-04-03T14:06:19;21.20;32.80
63435;DHT22;68814;50.872;5.306;2023-04-03T14:08:46;21.50;35.00
63435;DHT22;68814;50.872;5.306;2023-04-03T14:11:22;21.60;35.00
63435;DHT22;68814;50.872;5.306;2023-04-03T14:13:50;21.70;34.00
63435;DHT22;68814;50.872;5.306;2023-04-03T14:23:02;22.10;35.20
63435;DHT22;68814;50.872;5.306;2023-04-03T14:25:28;22.50;34.80
63435;DHT22;68814;50.872;5.306;2023-04-03T14:27:54;22.30;32.30
63435;DHT22;68814;50.872;5.306;2023-04-03T14:30:29;22.20;34.80
63435;DHT22;68814;50.872;5.306;2023-04-03T14:32:55;22.30;33.70
63435;DHT22;68814;50.872;5.306;2023-04-03T14:35:21;22.50;33.70
63435;DHT22;68814;50.872;5.306;2023-04-03T14:37:48;22.50;31.80
63435;DHT22;68814;50.872;5.306;2023-04-03T14:40:18;22.50;32.80
63435;DHT22;68814;50.872;5.306;2023-04-03T14:42:44;22.50;34.60
63435;DHT22;68814;50.872;5.306;2023-04-03T14:45:12;22.40;33.70
63435;DHT22;68814;50.872;5.306;2023-04-03T14:47:46;22.50;33.50
63435;DHT22;68814;50.872;5.306;2023-04-03T14:50:18;22.70;33.90
63435;DHT22;68814;50.872;5.306;2023-04-03T14:52:47;22.90;34.50
63435;DHT22;68814;50.872;5.306;2023-04-03T14:55:16;22.80;31.30
63435;DHT22;68814;50.872;5.306;2023-04-03T14:57:42;23.00;30.80
63435;DHT22;68814;50.872;5.306;2023-04-03T15:00:20;22.90;30.30
63435;DHT22;68814;50.872;5.306;2023-04-03T15:02:46;23.10;30.70
63435;DHT22;68814;50.872;5.306;2023-04-03T15:15:20;23.50;30.20
63435;DHT22;68814;50.872;5.306;2023-04-03T15:17:54;23.40;29.70
63435;DHT22;68814;50.872;5.306;2023-04-03T15:20:23;23.70;31.30
63435;DHT22;68814;50.872;5.306;2023-04-03T15:22:49;24.10;29.90
63435;DHT22;68814;50.872;5.306;2023-04-03T15:25:15;24.40;29.20
63435;DHT22;68814;50.872;5.306;2023-04-03T15:27:41;24.50;29.30
63435;DHT22;68814;50.872;5.306;2023-04-03T15:30:13;24.30;29.20
63435;DHT22;68814;50.872;5.306;2023-04-03T15:32:39;24.20;29.30
63435;DHT22;68814;50.872;5.306;2023-04-03T15:35:05;24.20;29.30
63435;DHT22;68814;50.872;5.306;2023-04-03T15:37:31;24.50;29.30
63435;DHT22;68814;50.872;5.306;2023-04-03T15:39:56;24.20;28.30
63435;DHT22;68814;50.872;5.306;2023-04-03T15:42:40;24.20;28.50
63435;DHT22;68814;50.872;5.306;2023-04-03T15:45:07;24.50;28.90
63435;DHT22;68814;50.872;5.306;2023-04-03T15:47:33;24.60;27.90
63435;DHT22;68814;50.872;5.306;2023-04-03T15:49:59;24.80;28.70
63435;DHT22;68814;50.872;5.306;2023-04-03T15:52:24;25.30;28.30
63435;DHT22;68814;50.872;5.306;2023-04-03T15:54:50;25.40;27.50
63435;DHT22;68814;50.872;5.306;2023-04-03T15:57:16;25.10;27.50
63435;DHT22;68814;50.872;5.306;2023-04-03T16:03:12;25.00;29.30
63435;DHT22;68814;50.872;5.306;2023-04-03T16:05:40;25.20;29.50
63435;DHT22;68814;50.872;5.306;2023-04-03T16:08:06;25.70;29.00
63435;DHT22;68814;50.872;5.306;2023-04-03T16:10:33;25.70;28.30
63435;DHT22;68814;50.872;5.306;2023-04-03T16:12:59;25.10;27.80
63435;DHT22;68814;50.872;5.306;2023-04-03T16:15:25;25.00;28.20
63435;DHT22;68814;50.872;5.306;2023-04-03T16:17:52;25.20;28.70
63435;DHT22;68814;50.872;5.306;2023-04-03T16:20:18;25.20;28.50
63435;DHT22;68814;50.872;5.306;2023-04-03T16:22:44;25.60;28.70
63435;DHT22;68814;50.872;5.306;2023-04-03T16:27:56;25.30;27.60
63435;DHT22;68814;50.872;5.306;2023-04-03T16:30:23;24.80;28.30
63435;DHT22;68814;50.872;5.306;2023-04-03T16:32:51;24.90;28.70
63435;DHT22;68814;50.872;5.306;2023-04-03T16:35:37;24.90;27.50
63435;DHT22;68814;50.872;5.306;2023-04-03T16:40:50;25.10;28.00
63435;DHT22;68814;50.872;5.306;2023-04-03T16:43:17;24.70;28.00
63435;DHT22;68814;50.872;5.306;2023-04-03T16:48:21;24.20;27.80
63435;DHT22;68814;50.872;5.306;2023-04-03T16:55:58;23.30;29.10
63435;DHT22;68814;50.872;5.306;2023-04-03T17:06:18;23.20;29.80
63435;DHT22;68814;50.872;5.306;2023-04-03T17:13:55;21.50;30.50
63435;DHT22;68814;50.872;5.306;2023-04-03T17:16:28;20.30;32.60
63435;DHT22;68814;50.872;5.306;2023-04-03T17:18:54;19.00;32.50
63435;DHT22;68814;50.872;5.306;2023-04-03T17:26:55;16.40;37.00
63435;DHT22;68814;50.872;5.306;2023-04-03T17:29:24;15.60;38.60
63435;DHT22;68814;50.872;5.306;2023-04-03T17:31:50;15.10;39.30
63435;DHT22;68814;50.872;5.306;2023-04-03T17:34:16;14.50;38.60
63435;DHT22;68814;50.872;5.306;2023-04-03T17:36:41;13.90;41.10
63435;DHT22;68814;50.872;5.306;2023-04-03T17:42:29;13.20;43.40
63435;DHT22;68814;50.872;5.306;2023-04-03T17:52:43;11.90;47.80
63435;DHT22;68814;50.872;5.306;2023-04-03T17:55:09;11.80;45.80
63435;DHT22;68814;50.872;5.306;2023-04-03T17:57:35;11.50;47.60
63435;DHT22;68814;50.872;5.306;2023-04-03T18:00:00;11.20;47.70
63435;DHT22;68814;50.872;5.306;2023-04-03T18:02:26;11.00;46.80
63435;DHT22;68814;50.872;5.306;2023-04-03T18:04:52;10.70;47.10
63435;DHT22;68814;50.872;5.306;2023-04-03T18:07:19;10.50;47.10
63435;DHT22;68814;50.872;5.306;2023-04-03T18:09:46;10.30;50.20
63435;DHT22;68814;50.872;5.306;2023-04-03T18:12:16;10.10;49.50
63435;DHT22;68814;50.872;5.306;2023-04-03T18:14:45;9.90;49.40
63435;DHT22;68814;50.872;5.306;2023-04-03T18:17:11;9.70;48.40
63435;DHT22;68814;50.872;5.306;2023-04-03T18:19:37;9.60;51.90
63435;DHT22;68814;50.872;5.306;2023-04-03T18:22:07;9.40;50.80
63435;DHT22;68814;50.872;5.306;2023-04-03T18:24:34;9.30;53.00
63435;DHT22;68814;50.872;5.306;2023-04-03T18:27:09;9.20;53.70
63435;DHT22;68814;50.872;5.306;2023-04-03T18:29:37;9.10;53.20
63435;DHT22;68814;50.872;5.306;2023-04-03T18:32:05;8.90;50.90
63435;DHT22;68814;50.872;5.306;2023-04-03T18:34:32;8.80;52.50
63435;DHT22;68814;50.872;5.306;2023-04-03T18:36:58;8.60;53.60
63435;DHT22;68814;50.872;5.306;2023-04-03T18:39:24;8.60;55.10
63435;DHT22;68814;50.872;5.306;2023-04-03T18:41:50;8.40;53.40
63435;DHT22;68814;50.872;5.306;2023-04-03T18:44:18;8.40;55.80
63435;DHT22;68814;50.872;5.306;2023-04-03T18:46:45;8.20;56.90
63435;DHT22;68814;50.872;5.306;2023-04-03T18:52:33;7.90;54.30
63435;DHT22;68814;50.872;5.306;2023-04-03T18:54:58;7.80;55.30
63435;DHT22;68814;50.872;5.306;2023-04-03T18:57:24;7.70;55.90
63435;DHT22;68814;50.872;5.306;2023-04-03T18:59:53;7.60;55.90
63435;DHT22;68814;50.872;5.306;2023-04-03T19:09:08;7.30;57.10
63435;DHT22;68814;50.872;5.306;2023-04-03T19:11:33;7.20;58.80
63435;DHT22;68814;50.872;5.306;2023-04-03T19:13:59;7.10;58.90
63435;DHT22;68814;50.872;5.306;2023-04-03T19:16:25;7.00;57.70
63435;DHT22;68814;50.872;5.306;2023-04-03T19:18:51;7.00;58.80
63435;DHT22;68814;50.872;5.306;2023-04-03T19:21:16;6.90;57.50
63435;DHT22;68814;50.872;5.306;2023-04-03T19:23:42;6.80;59.40
63435;DHT22;68814;50.872;5.306;2023-04-03T19:26:10;6.70;58.20
63435;DHT22;68814;50.872;5.306;2023-04-03T19:28:37;6.70;58.90
63435;DHT22;68814;50.872;5.306;2023-04-03T19:44:31;6.20;59.60
63435;DHT22;68814;50.872;5.306;2023-04-03T19:46:58;6.10;58.90
63435;DHT22;68814;50.872;5.306;2023-04-03T19:49:24;6.10;61.60
63435;DHT22;68814;50.872;5.306;2023-04-03T19:51:49;6.10;61.00
63435;DHT22;68814;50.872;5.306;2023-04-03T19:54:15;6.00;62.20
63435;DHT22;68814;50.872;5.306;2023-04-03T19:56:41;6.00;60.00
63435;DHT22;68814;50.872;5.306;2023-04-03T19:59:07;5.90;60.90
63435;DHT22;68814;50.872;5.306;2023-04-03T20:01:32;5.90;61.40
63435;DHT22;68814;50.872;5.306;2023-04-03T20:14:05;5.60;60.80
63435;DHT22;68814;50.872;5.306;2023-04-03T20:16:31;5.50;61.90
63435;DHT22;68814;50.872;5.306;2023-04-03T20:18:57;5.50;62.30
63435;DHT22;68814;50.872;5.306;2023-04-03T20:21:28;5.50;62.60
63435;DHT22;68814;50.872;5.306;2023-04-03T20:23:54;5.40;61.80
63435;DHT22;68814;50.872;5.306;2023-04-03T20:26:22;5.40;63.20
63435;DHT22;68814;50.872;5.306;2023-04-03T20:28:59;5.30;63.00
63435;DHT22;68814;50.872;5.306;2023-04-03T20:31:26;5.30;61.70
63435;DHT22;68814;50.872;5.306;2023-04-03T20:33:53;5.30;61.90
63435;DHT22;68814;50.872;5.306;2023-04-03T20:36:19;5.30;62.40
63435;DHT22;68814;50.872;5.306;2023-04-03T20:38:46;5.20;62.50
63435;DHT22;68814;50.872;5.306;2023-04-03T20:41:13;5.20;62.20
63435;DHT22;68814;50.872;5.306;2023-04-03T20:43:39;5.10;63.80
63435;DHT22;68814;50.872;5.306;2023-04-03T20:49:34;5.10;63.40
63435;DHT22;68814;50.872;5.306;2023-04-03T20:52:00;5.00;63.60
63435;DHT22;68814;50.872;5.306;2023-04-03T20:54:25;5.00;63.40
63435;DHT22;68814;50.872;5.306;2023-04-03T20:56:51;4.90;63.90
63435;DHT22;68814;50.872;5.306;2023-04-03T20:59:17;4.90;63.40
63435;DHT22;68814;50.872;5.306;2023-04-03T21:01:43;4.90;64.80
63435;DHT22;68814;50.872;5.306;2023-04-03T21:04:27;4.80;64.20
63435;DHT22;68814;50.872;5.306;2023-04-03T21:19:32;4.60;66.00
63435;DHT22;68814;50.872;5.306;2023-04-03T21:21:59;4.50;64.00
63435;DHT22;68814;50.872;5.306;2023-04-03T21:24:25;4.50;66.20
63435;DHT22;68814;50.872;5.306;2023-04-03T21:26:51;4.40;65.90
63435;DHT22;68814;50.872;5.306;2023-04-03T21:50:22;4.20;68.90
63435;DHT22;68814;50.872;5.306;2023-04-03T21:52:48;4.10;68.50
63435;DHT22;68814;50.872;5.306;2023-04-03T21:55:17;4.00;67.90
63435;DHT22;68814;50.872;5.306;2023-04-03T21:57:49;4.00;68.10
63435;DHT22;68814;50.872;5.306;2023-04-03T22:00:16;4.00;68.70
63435;DHT22;68814;50.872;5.306;2023-04-03T22:02:43;3.90;68.90
63435;DHT22;68814;50.872;5.306;2023-04-03T22:05:20;3.90;68.20
63435;DHT22;68814;50.872;5.306;2023-04-03T22:07:46;3.80;68.90
63435;DHT22;68814;50.872;5.306;2023-04-03T22:10:12;3.80;69.00